RYR39BP EBCI-LERS
Flight info
| Callsign | RYR39BP |
|---|---|
| Flight time | 1h 53m |
| Altitude | 31000 |
| Route | CIV N872 LESDO DCT KOVIN DCT DUCRA/N0455F330 UM728 RESMI UN857 DISAK DCT DIRMO DCT VALKU DCT ATSUP DCT MINSO DCT DEGOL DCT PPG DCT ALBER P84 GIR |
| Aircraft | B738/M-SDE2E3FGHIRWXY/LB1 |
Departure
| Time | 2026-04-23 13:53 |
|---|---|
| Airport | Brussels South Charleroi Airport (EBCI) |
Arrival
| Time | 2026-04-23 15:47 |
|---|---|
| Airport | Reus Airport (LERS) |
| Time | Latitude | Longitude | Altitude | Speed | Heading |
|---|---|---|---|---|---|
| 2026-04-23 13:22 | 50.47025 | 4.47628 | 584 ft | 0 kts | 335° |
| 2026-04-23 13:42 | 50.47013 | 4.47638 | 584 ft | 4 kts | 329° |
| 2026-04-23 13:42 | 50.46992 | 4.47664 | 584 ft | 4 kts | 301° |
| 2026-04-23 13:42 | 50.46986 | 4.47700 | 585 ft | 5 kts | 252° |
| 2026-04-23 13:42 | 50.46987 | 4.47709 | 585 ft | 3 kts | 245° |
| 2026-04-23 13:44 | 50.46988 | 4.47709 | 585 ft | 0 kts | 245° |
| 2026-04-23 13:46 | 50.46986 | 4.47705 | 585 ft | 5 kts | 245° |
| 2026-04-23 13:46 | 50.46960 | 4.47615 | 584 ft | 11 kts | 244° |
| 2026-04-23 13:47 | 50.46923 | 4.47490 | 585 ft | 14 kts | 247° |
| 2026-04-23 13:47 | 50.46881 | 4.47352 | 584 ft | 11 kts | 234° |
| 2026-04-23 13:47 | 50.46812 | 4.47346 | 587 ft | 11 kts | 157° |
| 2026-04-23 13:47 | 50.46750 | 4.47296 | 590 ft | 12 kts | 245° |
| 2026-04-23 13:48 | 50.46710 | 4.47160 | 591 ft | 16 kts | 245° |
| 2026-04-23 13:48 | 50.46656 | 4.46976 | 593 ft | 21 kts | 246° |
| 2026-04-23 13:48 | 50.46588 | 4.46739 | 590 ft | 28 kts | 245° |
| 2026-04-23 13:48 | 50.46500 | 4.46436 | 588 ft | 33 kts | 245° |
| 2026-04-23 13:49 | 50.46407 | 4.46117 | 591 ft | 31 kts | 245° |
| 2026-04-23 13:49 | 50.46322 | 4.45824 | 596 ft | 29 kts | 245° |
| 2026-04-23 13:49 | 50.46242 | 4.45549 | 599 ft | 27 kts | 245° |
| 2026-04-23 13:49 | 50.46167 | 4.45290 | 598 ft | 25 kts | 245° |
| 2026-04-23 13:50 | 50.46120 | 4.45129 | 596 ft | 24 kts | 245° |
| 2026-04-23 13:50 | 50.46053 | 4.44899 | 596 ft | 23 kts | 245° |
| 2026-04-23 13:50 | 50.45967 | 4.44602 | 598 ft | 22 kts | 245° |
| 2026-04-23 13:50 | 50.45922 | 4.44463 | 599 ft | 21 kts | 238° |
| 2026-04-23 13:51 | 50.45834 | 4.44278 | 598 ft | 21 kts | 231° |
| 2026-04-23 13:51 | 50.45746 | 4.44102 | 594 ft | 20 kts | 232° |
| 2026-04-23 13:51 | 50.45654 | 4.43940 | 592 ft | 20 kts | 221° |
| 2026-04-23 13:51 | 50.45587 | 4.43893 | 591 ft | 7 kts | 127° |
| 2026-04-23 13:52 | 50.45598 | 4.43955 | 591 ft | 0 kts | 66° |
| 2026-04-23 13:52 | 50.45598 | 4.43956 | 591 ft | 0 kts | 66° |
| 2026-04-23 13:52 | 50.45625 | 4.44051 | 593 ft | 34 kts | 65° |
| 2026-04-23 13:52 | 50.45825 | 4.44737 | 599 ft | 102 kts | 65° |
| 2026-04-23 13:53 | 50.46202 | 4.46037 | 664 ft | 150 kts | 66° |
| 2026-04-23 13:53 | 50.46624 | 4.47528 | 1397 ft | 150 kts | 64° |
| 2026-04-23 13:53 | 50.47169 | 4.48892 | 2161 ft | 150 kts | 41° |
| 2026-04-23 13:53 | 50.48124 | 4.49517 | 2826 ft | 149 kts | 10° |
| 2026-04-23 13:54 | 50.49030 | 4.50264 | 3286 ft | 153 kts | 61° |
| 2026-04-23 13:54 | 50.49512 | 4.51741 | 3886 ft | 156 kts | 59° |
| 2026-04-23 13:54 | 50.50143 | 4.53264 | 4210 ft | 179 kts | 57° |
| 2026-04-23 13:54 | 50.50910 | 4.54970 | 4385 ft | 203 kts | 55° |
| 2026-04-23 13:55 | 50.51790 | 4.56854 | 4603 ft | 224 kts | 54° |
| 2026-04-23 13:55 | 50.52763 | 4.58824 | 5075 ft | 232 kts | 53° |
| 2026-04-23 13:55 | 50.54012 | 4.60431 | 5620 ft | 238 kts | 22° |
| 2026-04-23 13:55 | 50.55709 | 4.60729 | 6006 ft | 262 kts | 353° |
| 2026-04-23 13:56 | 50.57431 | 4.59676 | 6667 ft | 273 kts | 328° |
| 2026-04-23 13:56 | 50.58743 | 4.57490 | 7408 ft | 281 kts | 301° |
| 2026-04-23 13:56 | 50.59338 | 4.54531 | 8128 ft | 289 kts | 278° |
| 2026-04-23 13:56 | 50.59387 | 4.51349 | 8881 ft | 293 kts | 269° |
| 2026-04-23 13:57 | 50.59281 | 4.48116 | 9623 ft | 298 kts | 268° |
| 2026-04-23 13:57 | 50.59147 | 4.44837 | 10383 ft | 303 kts | 268° |
| 2026-04-23 13:57 | 50.59017 | 4.41474 | 10871 ft | 317 kts | 268° |
| 2026-04-23 13:57 | 50.58894 | 4.37876 | 11036 ft | 341 kts | 268° |
| 2026-04-23 13:58 | 50.58777 | 4.34016 | 11222 ft | 364 kts | 268° |
| 2026-04-23 13:58 | 50.58663 | 4.29958 | 11618 ft | 376 kts | 268° |
| 2026-04-23 13:58 | 50.58552 | 4.25834 | 12354 ft | 378 kts | 268° |
| 2026-04-23 13:58 | 50.58444 | 4.21684 | 13070 ft | 381 kts | 268° |
| 2026-04-23 13:59 | 50.58335 | 4.17495 | 13752 ft | 387 kts | 268° |
| 2026-04-23 13:59 | 50.58225 | 4.13240 | 14442 ft | 391 kts | 268° |
| 2026-04-23 13:59 | 50.58111 | 4.08954 | 15117 ft | 394 kts | 268° |
| 2026-04-23 13:59 | 50.57996 | 4.04643 | 15852 ft | 396 kts | 267° |
| 2026-04-23 14:00 | 50.57918 | 4.01756 | 16293 ft | 399 kts | 267° |
| 2026-04-23 14:00 | 50.57757 | 3.95883 | 17145 ft | 406 kts | 266° |
| 2026-04-23 14:00 | 50.57628 | 3.91426 | 17845 ft | 407 kts | 265° |
| 2026-04-23 14:00 | 50.57033 | 3.87103 | 18621 ft | 405 kts | 245° |
| 2026-04-23 14:01 | 50.55516 | 3.83398 | 19190 ft | 405 kts | 226° |
| 2026-04-23 14:01 | 50.53409 | 3.80567 | 19721 ft | 405 kts | 209° |
| 2026-04-23 14:01 | 50.50872 | 3.78643 | 20280 ft | 406 kts | 201° |
| 2026-04-23 14:01 | 50.48253 | 3.76915 | 20822 ft | 410 kts | 200° |
| 2026-04-23 14:02 | 50.45614 | 3.75196 | 21378 ft | 413 kts | 200° |
| 2026-04-23 14:02 | 50.42956 | 3.73439 | 21926 ft | 416 kts | 201° |
| 2026-04-23 14:02 | 50.40290 | 3.71646 | 22447 ft | 419 kts | 201° |
| 2026-04-23 14:02 | 50.37603 | 3.69821 | 22958 ft | 422 kts | 201° |
| 2026-04-23 14:03 | 50.34904 | 3.67985 | 23554 ft | 423 kts | 201° |
| 2026-04-23 14:03 | 50.32199 | 3.66149 | 24078 ft | 425 kts | 201° |
| 2026-04-23 14:03 | 50.29473 | 3.64305 | 24470 ft | 428 kts | 201° |
| 2026-04-23 14:03 | 50.26726 | 3.62449 | 24869 ft | 431 kts | 200° |
| 2026-04-23 14:04 | 50.23968 | 3.60586 | 25306 ft | 433 kts | 200° |
| 2026-04-23 14:04 | 50.21199 | 3.58717 | 25736 ft | 434 kts | 200° |
| 2026-04-23 14:04 | 50.18421 | 3.56847 | 26136 ft | 436 kts | 200° |
| 2026-04-23 14:04 | 50.15623 | 3.54970 | 26518 ft | 438 kts | 200° |
| 2026-04-23 14:05 | 50.12815 | 3.53090 | 26908 ft | 440 kts | 199° |
| 2026-04-23 14:05 | 50.09993 | 3.51204 | 27287 ft | 442 kts | 199° |
| 2026-04-23 14:05 | 50.07153 | 3.49308 | 27633 ft | 445 kts | 199° |
| 2026-04-23 14:05 | 50.04303 | 3.47406 | 27986 ft | 447 kts | 199° |
| 2026-04-23 14:06 | 50.01436 | 3.45495 | 28334 ft | 449 kts | 199° |
| 2026-04-23 14:06 | 49.98561 | 3.43579 | 28672 ft | 451 kts | 199° |
| 2026-04-23 14:06 | 49.95675 | 3.41659 | 29066 ft | 451 kts | 199° |
| 2026-04-23 14:06 | 49.92797 | 3.39746 | 29589 ft | 448 kts | 198° |
| 2026-04-23 14:07 | 49.89942 | 3.37849 | 30178 ft | 445 kts | 198° |
| 2026-04-23 14:07 | 49.84272 | 3.34094 | 31031 ft | 442 kts | 198° |
| 2026-04-23 14:07 | 49.81444 | 3.32227 | 31365 ft | 442 kts | 198° |
| 2026-04-23 14:08 | 49.78651 | 3.30382 | 31720 ft | 442 kts | 198° |
| 2026-04-23 14:08 | 49.75826 | 3.28513 | 32120 ft | 440 kts | 198° |
| 2026-04-23 14:08 | 49.73015 | 3.26653 | 32505 ft | 439 kts | 198° |
| 2026-04-23 14:08 | 49.70209 | 3.24799 | 32864 ft | 438 kts | 198° |
| 2026-04-23 14:09 | 49.67411 | 3.22952 | 33239 ft | 437 kts | 198° |
| 2026-04-23 14:09 | 49.64603 | 3.21103 | 33331 ft | 441 kts | 198° |
| 2026-04-23 14:09 | 49.58942 | 3.17381 | 33335 ft | 441 kts | 198° |
| 2026-04-23 14:10 | 49.53340 | 3.13700 | 33343 ft | 435 kts | 198° |
| 2026-04-23 14:10 | 49.47819 | 3.09903 | 33344 ft | 437 kts | 204° |
| 2026-04-23 14:11 | 49.42703 | 3.04747 | 33339 ft | 440 kts | 208° |
| 2026-04-23 14:11 | 49.37623 | 2.99496 | 33338 ft | 439 kts | 208° |
| 2026-04-23 14:12 | 49.32540 | 2.94313 | 33342 ft | 439 kts | 207° |
| 2026-04-23 14:12 | 49.27438 | 2.89160 | 33333 ft | 440 kts | 207° |
| 2026-04-23 14:13 | 49.22356 | 2.84046 | 33339 ft | 441 kts | 208° |
| 2026-04-23 14:13 | 49.17216 | 2.78884 | 33336 ft | 442 kts | 208° |
| 2026-04-23 14:14 | 49.12060 | 2.73719 | 33323 ft | 444 kts | 208° |
| 2026-04-23 14:14 | 49.06888 | 2.68549 | 33318 ft | 445 kts | 207° |
| 2026-04-23 14:15 | 49.01704 | 2.63380 | 33330 ft | 446 kts | 210° |
| 2026-04-23 14:15 | 48.96489 | 2.58192 | 33323 ft | 449 kts | 210° |
| 2026-04-23 14:16 | 48.91245 | 2.52989 | 33324 ft | 451 kts | 210° |
| 2026-04-23 14:16 | 48.85980 | 2.47776 | 33322 ft | 453 kts | 210° |
| 2026-04-23 14:17 | 48.80686 | 2.42545 | 33293 ft | 454 kts | 210° |
| 2026-04-23 14:17 | 48.75387 | 2.37321 | 33295 ft | 455 kts | 210° |
| 2026-04-23 14:18 | 48.70087 | 2.32111 | 33296 ft | 454 kts | 210° |
| 2026-04-23 14:18 | 48.64786 | 2.26910 | 33296 ft | 454 kts | 210° |
| 2026-04-23 14:19 | 48.59489 | 2.21736 | 33288 ft | 453 kts | 209° |
| 2026-04-23 14:19 | 48.53759 | 2.18021 | 33283 ft | 446 kts | 191° |
| 2026-04-23 14:20 | 48.47693 | 2.16151 | 33279 ft | 445 kts | 189° |
| 2026-04-23 14:20 | 48.41646 | 2.14287 | 33282 ft | 450 kts | 191° |
| 2026-04-23 14:21 | 48.35431 | 2.12289 | 33278 ft | 462 kts | 192° |
| 2026-04-23 14:21 | 48.29049 | 2.10477 | 33270 ft | 469 kts | 184° |
| 2026-04-23 14:22 | 48.22604 | 2.11057 | 33273 ft | 461 kts | 170° |
| 2026-04-23 14:22 | 48.16251 | 2.12580 | 33265 ft | 467 kts | 172° |
| 2026-04-23 14:23 | 48.09751 | 2.13566 | 33259 ft | 464 kts | 177° |
| 2026-04-23 14:23 | 48.03411 | 2.13879 | 33256 ft | 451 kts | 177° |
| 2026-04-23 14:24 | 47.97120 | 2.14173 | 33261 ft | 455 kts | 178° |
| 2026-04-23 14:24 | 47.90751 | 2.14516 | 33272 ft | 466 kts | 177° |
| 2026-04-23 14:25 | 47.84219 | 2.14892 | 33273 ft | 470 kts | 177° |
| 2026-04-23 14:25 | 47.77736 | 2.15269 | 33227 ft | 462 kts | 178° |
| 2026-04-23 14:26 | 47.71240 | 2.15645 | 33253 ft | 473 kts | 178° |
| 2026-04-23 14:26 | 47.64619 | 2.16026 | 33240 ft | 477 kts | 178° |
| 2026-04-23 14:27 | 47.57966 | 2.16409 | 33230 ft | 478 kts | 178° |
| 2026-04-23 14:27 | 47.51315 | 2.16791 | 33219 ft | 479 kts | 179° |
| 2026-04-23 14:28 | 47.44692 | 2.17170 | 33235 ft | 480 kts | 179° |
| 2026-04-23 14:28 | 47.38013 | 2.17550 | 33229 ft | 481 kts | 179° |
| 2026-04-23 14:29 | 47.31311 | 2.17932 | 33215 ft | 483 kts | 180° |
| 2026-04-23 14:29 | 47.24572 | 2.18313 | 33225 ft | 486 kts | 180° |
| 2026-04-23 14:30 | 47.17784 | 2.18698 | 33219 ft | 489 kts | 180° |
| 2026-04-23 14:30 | 47.10959 | 2.19155 | 33203 ft | 494 kts | 176° |
| 2026-04-23 14:31 | 47.04280 | 2.21654 | 33219 ft | 500 kts | 160° |
| 2026-04-23 14:31 | 46.97823 | 2.25538 | 33204 ft | 502 kts | 159° |
| 2026-04-23 14:32 | 46.91355 | 2.29424 | 33203 ft | 502 kts | 159° |
| 2026-04-23 14:32 | 46.84859 | 2.33235 | 33206 ft | 502 kts | 160° |
| 2026-04-23 14:33 | 46.78368 | 2.36997 | 33204 ft | 502 kts | 160° |
| 2026-04-23 14:33 | 46.71869 | 2.40750 | 33202 ft | 502 kts | 160° |
| 2026-04-23 14:34 | 46.65424 | 2.44465 | 33231 ft | 501 kts | 160° |
| 2026-04-23 14:34 | 46.58958 | 2.48187 | 33213 ft | 498 kts | 160° |
| 2026-04-23 14:35 | 46.52529 | 2.51878 | 33181 ft | 495 kts | 160° |
| 2026-04-23 14:35 | 46.46122 | 2.55546 | 33200 ft | 494 kts | 160° |
| 2026-04-23 14:36 | 46.40803 | 2.58584 | 33214 ft | 494 kts | 160° |
| 2026-04-23 14:36 | 46.34391 | 2.62238 | 33214 ft | 496 kts | 160° |
| 2026-04-23 14:37 | 46.27955 | 2.65897 | 33200 ft | 498 kts | 160° |
| 2026-04-23 14:37 | 46.21489 | 2.69563 | 33197 ft | 500 kts | 160° |
| 2026-04-23 14:38 | 46.15004 | 2.73232 | 33202 ft | 501 kts | 160° |
| 2026-04-23 14:38 | 46.08499 | 2.76903 | 33194 ft | 503 kts | 160° |
| 2026-04-23 14:39 | 46.01977 | 2.80575 | 33205 ft | 504 kts | 160° |
| 2026-04-23 14:39 | 45.95425 | 2.84177 | 33188 ft | 504 kts | 161° |
| 2026-04-23 14:40 | 45.88848 | 2.87628 | 33186 ft | 503 kts | 162° |
| 2026-04-23 14:40 | 45.82278 | 2.91086 | 33191 ft | 503 kts | 162° |
| 2026-04-23 14:41 | 45.75677 | 2.94353 | 33174 ft | 500 kts | 169° |
| 2026-04-23 14:41 | 45.68848 | 2.95356 | 33201 ft | 490 kts | 185° |
| 2026-04-23 14:42 | 45.62085 | 2.95071 | 33191 ft | 489 kts | 186° |
| 2026-04-23 14:42 | 45.55273 | 2.94796 | 33205 ft | 489 kts | 186° |
| 2026-04-23 14:43 | 45.48452 | 2.94586 | 33201 ft | 490 kts | 185° |
| 2026-04-23 14:43 | 45.41639 | 2.94406 | 33203 ft | 491 kts | 185° |
| 2026-04-23 14:44 | 45.34797 | 2.94227 | 33196 ft | 492 kts | 185° |
| 2026-04-23 14:44 | 45.27949 | 2.94045 | 33198 ft | 492 kts | 185° |
| 2026-04-23 14:45 | 45.21100 | 2.93863 | 33211 ft | 493 kts | 185° |
| 2026-04-23 14:45 | 45.14241 | 2.93680 | 33187 ft | 493 kts | 185° |
| 2026-04-23 14:46 | 45.07414 | 2.93498 | 33195 ft | 494 kts | 185° |
| 2026-04-23 14:46 | 45.00540 | 2.93316 | 33204 ft | 494 kts | 185° |
| 2026-04-23 14:47 | 44.93672 | 2.93135 | 33199 ft | 492 kts | 185° |
| 2026-04-23 14:47 | 44.86834 | 2.92954 | 33213 ft | 491 kts | 185° |
| 2026-04-23 14:48 | 44.80019 | 2.92661 | 33209 ft | 488 kts | 187° |
| 2026-04-23 14:48 | 44.73233 | 2.92123 | 33221 ft | 487 kts | 187° |
| 2026-04-23 14:49 | 44.66463 | 2.91573 | 33211 ft | 487 kts | 187° |
| 2026-04-23 14:49 | 44.59698 | 2.91060 | 33232 ft | 487 kts | 187° |
| 2026-04-23 14:50 | 44.52932 | 2.90568 | 33224 ft | 486 kts | 187° |
| 2026-04-23 14:50 | 44.46178 | 2.90081 | 33224 ft | 486 kts | 187° |
| 2026-04-23 14:51 | 44.39407 | 2.89591 | 33225 ft | 486 kts | 187° |
| 2026-04-23 14:51 | 44.32638 | 2.89101 | 33220 ft | 487 kts | 187° |
| 2026-04-23 14:52 | 44.25904 | 2.88616 | 33216 ft | 488 kts | 187° |
| 2026-04-23 14:52 | 44.19125 | 2.88128 | 33218 ft | 488 kts | 187° |
| 2026-04-23 14:53 | 44.12340 | 2.87641 | 33204 ft | 488 kts | 187° |
| 2026-04-23 14:53 | 44.05558 | 2.87156 | 33219 ft | 487 kts | 187° |
| 2026-04-23 14:54 | 43.98776 | 2.86671 | 33199 ft | 488 kts | 187° |
| 2026-04-23 14:54 | 43.91996 | 2.86188 | 33208 ft | 487 kts | 187° |
| 2026-04-23 14:55 | 43.85225 | 2.85706 | 33216 ft | 487 kts | 187° |
| 2026-04-23 14:55 | 43.78454 | 2.85227 | 33212 ft | 487 kts | 186° |
| 2026-04-23 14:56 | 43.71656 | 2.85141 | 33206 ft | 489 kts | 182° |
| 2026-04-23 14:56 | 43.64858 | 2.85322 | 33231 ft | 488 kts | 182° |
| 2026-04-23 14:57 | 43.58069 | 2.85486 | 33212 ft | 488 kts | 182° |
| 2026-04-23 14:57 | 43.51292 | 2.85604 | 33239 ft | 486 kts | 183° |
| 2026-04-23 14:58 | 43.44563 | 2.85698 | 33223 ft | 487 kts | 183° |
| 2026-04-23 14:58 | 43.37748 | 2.85794 | 33226 ft | 486 kts | 183° |
| 2026-04-23 14:59 | 43.31027 | 2.85891 | 33221 ft | 486 kts | 183° |
| 2026-04-23 14:59 | 43.24257 | 2.85989 | 33239 ft | 486 kts | 183° |
| 2026-04-23 15:00 | 43.17483 | 2.86087 | 33026 ft | 490 kts | 183° |
| 2026-04-23 15:00 | 43.14061 | 2.86135 | 32352 ft | 491 kts | 183° |
| 2026-04-23 15:00 | 43.10654 | 2.86186 | 31639 ft | 490 kts | 183° |
| 2026-04-23 15:01 | 43.07240 | 2.86236 | 30888 ft | 490 kts | 183° |
| 2026-04-23 15:01 | 43.03831 | 2.86286 | 30051 ft | 491 kts | 183° |
| 2026-04-23 15:01 | 43.00409 | 2.86334 | 29264 ft | 490 kts | 183° |
| 2026-04-23 15:01 | 42.97025 | 2.86385 | 28648 ft | 484 kts | 183° |
| 2026-04-23 15:02 | 42.94804 | 2.86418 | 28250 ft | 481 kts | 183° |
| 2026-04-23 15:02 | 42.90356 | 2.86483 | 27451 ft | 474 kts | 182° |
| 2026-04-23 15:02 | 42.87072 | 2.86530 | 26838 ft | 470 kts | 182° |
| 2026-04-23 15:02 | 42.83816 | 2.86576 | 26257 ft | 465 kts | 182° |
| 2026-04-23 15:03 | 42.80598 | 2.86621 | 25683 ft | 461 kts | 182° |
| 2026-04-23 15:03 | 42.77400 | 2.86667 | 25111 ft | 458 kts | 182° |
| 2026-04-23 15:03 | 42.74229 | 2.86664 | 24517 ft | 454 kts | 185° |
| 2026-04-23 15:03 | 42.71090 | 2.86383 | 23896 ft | 451 kts | 187° |
| 2026-04-23 15:04 | 42.67977 | 2.85991 | 23222 ft | 448 kts | 188° |
| 2026-04-23 15:04 | 42.64893 | 2.85578 | 22611 ft | 443 kts | 188° |
| 2026-04-23 15:04 | 42.61837 | 2.85178 | 22029 ft | 439 kts | 188° |
| 2026-04-23 15:04 | 42.58807 | 2.84801 | 21456 ft | 435 kts | 188° |
| 2026-04-23 15:05 | 42.55809 | 2.84442 | 20893 ft | 431 kts | 188° |
| 2026-04-23 15:05 | 42.52838 | 2.84093 | 20346 ft | 427 kts | 187° |
| 2026-04-23 15:05 | 42.49885 | 2.83749 | 19803 ft | 424 kts | 187° |
| 2026-04-23 15:05 | 42.46991 | 2.83411 | 19253 ft | 421 kts | 187° |
| 2026-04-23 15:06 | 42.44076 | 2.83071 | 18695 ft | 419 kts | 187° |
| 2026-04-23 15:06 | 42.41182 | 2.82735 | 18061 ft | 417 kts | 187° |
| 2026-04-23 15:06 | 42.38296 | 2.82401 | 17491 ft | 413 kts | 187° |
| 2026-04-23 15:06 | 42.35441 | 2.82071 | 16918 ft | 410 kts | 187° |
| 2026-04-23 15:07 | 42.32615 | 2.81744 | 16381 ft | 406 kts | 187° |
| 2026-04-23 15:07 | 42.29809 | 2.81420 | 15833 ft | 403 kts | 187° |
| 2026-04-23 15:07 | 42.27026 | 2.81099 | 15296 ft | 400 kts | 187° |
| 2026-04-23 15:07 | 42.24258 | 2.80779 | 14749 ft | 398 kts | 187° |
| 2026-04-23 15:08 | 42.21502 | 2.80461 | 14180 ft | 397 kts | 186° |
| 2026-04-23 15:08 | 42.18758 | 2.80144 | 13578 ft | 395 kts | 186° |
| 2026-04-23 15:08 | 42.16022 | 2.79829 | 12961 ft | 393 kts | 186° |
| 2026-04-23 15:09 | 42.10592 | 2.79205 | 11739 ft | 389 kts | 186° |
| 2026-04-23 15:09 | 42.07906 | 2.78896 | 11201 ft | 385 kts | 186° |
| 2026-04-23 15:09 | 42.05256 | 2.78592 | 10861 ft | 377 kts | 186° |
| 2026-04-23 15:09 | 42.02689 | 2.78300 | 10692 ft | 363 kts | 187° |
| 2026-04-23 15:10 | 42.01037 | 2.78112 | 10597 ft | 356 kts | 187° |
| 2026-04-23 15:10 | 41.97837 | 2.77571 | 10388 ft | 338 kts | 200° |
| 2026-04-23 15:10 | 41.95857 | 2.76128 | 10275 ft | 323 kts | 223° |
| 2026-04-23 15:10 | 41.94454 | 2.73895 | 10219 ft | 305 kts | 243° |
| 2026-04-23 15:11 | 41.93626 | 2.71355 | 10215 ft | 289 kts | 256° |
| 2026-04-23 15:11 | 41.93344 | 2.68760 | 10185 ft | 274 kts | 270° |
| 2026-04-23 15:11 | 41.93370 | 2.66226 | 10146 ft | 269 kts | 273° |
| 2026-04-23 15:11 | 41.93460 | 2.63752 | 10132 ft | 263 kts | 275° |
| 2026-04-23 15:12 | 41.93563 | 2.61266 | 10107 ft | 271 kts | 274° |
| 2026-04-23 15:12 | 41.93665 | 2.58702 | 10100 ft | 280 kts | 274° |
| 2026-04-23 15:12 | 41.93764 | 2.56079 | 10077 ft | 280 kts | 274° |
| 2026-04-23 15:12 | 41.93856 | 2.53505 | 10051 ft | 273 kts | 273° |
| 2026-04-23 15:13 | 41.93942 | 2.50972 | 9983 ft | 270 kts | 274° |
| 2026-04-23 15:13 | 41.94026 | 2.48448 | 10036 ft | 271 kts | 274° |
| 2026-04-23 15:13 | 41.94107 | 2.45926 | 9977 ft | 269 kts | 274° |
| 2026-04-23 15:13 | 41.94186 | 2.43418 | 9972 ft | 271 kts | 274° |
| 2026-04-23 15:14 | 41.94267 | 2.40863 | 9956 ft | 277 kts | 274° |
| 2026-04-23 15:14 | 41.94346 | 2.38292 | 9931 ft | 273 kts | 274° |
| 2026-04-23 15:14 | 41.94422 | 2.35750 | 9904 ft | 273 kts | 273° |
| 2026-04-23 15:14 | 41.94499 | 2.33209 | 9895 ft | 273 kts | 273° |
| 2026-04-23 15:15 | 41.94576 | 2.30636 | 9876 ft | 278 kts | 273° |
| 2026-04-23 15:15 | 41.94652 | 2.28064 | 9849 ft | 273 kts | 273° |
| 2026-04-23 15:15 | 41.94727 | 2.25516 | 9820 ft | 273 kts | 274° |
| 2026-04-23 15:15 | 41.94802 | 2.22963 | 9805 ft | 274 kts | 273° |
| 2026-04-23 15:16 | 41.94877 | 2.20428 | 9788 ft | 270 kts | 274° |
| 2026-04-23 15:16 | 41.94948 | 2.17924 | 9771 ft | 269 kts | 273° |
| 2026-04-23 15:16 | 41.95018 | 2.15394 | 9751 ft | 273 kts | 273° |
| 2026-04-23 15:16 | 41.95089 | 2.12884 | 9728 ft | 273 kts | 274° |
| 2026-04-23 15:17 | 41.95160 | 2.10330 | 9714 ft | 276 kts | 272° |
| 2026-04-23 15:17 | 41.95232 | 2.07740 | 9692 ft | 279 kts | 273° |
| 2026-04-23 15:17 | 41.95304 | 2.05148 | 9672 ft | 277 kts | 273° |
| 2026-04-23 15:17 | 41.95375 | 2.02578 | 9633 ft | 273 kts | 273° |
| 2026-04-23 15:18 | 41.95444 | 2.00030 | 9634 ft | 273 kts | 273° |
| 2026-04-23 15:18 | 41.95512 | 1.97488 | 9614 ft | 272 kts | 273° |
| 2026-04-23 15:18 | 41.95580 | 1.94955 | 9587 ft | 271 kts | 273° |
| 2026-04-23 15:18 | 41.95647 | 1.92408 | 9574 ft | 274 kts | 273° |
| 2026-04-23 15:19 | 41.95715 | 1.89848 | 9557 ft | 275 kts | 273° |
| 2026-04-23 15:19 | 41.95783 | 1.87281 | 9534 ft | 275 kts | 272° |
| 2026-04-23 15:19 | 41.95849 | 1.84713 | 9519 ft | 275 kts | 272° |
| 2026-04-23 15:19 | 41.95915 | 1.82139 | 9488 ft | 276 kts | 272° |
| 2026-04-23 15:20 | 41.95958 | 1.80436 | 9484 ft | 275 kts | 272° |
| 2026-04-23 15:20 | 41.95569 | 1.77108 | 9433 ft | 277 kts | 245° |
| 2026-04-23 15:20 | 41.94441 | 1.75018 | 9443 ft | 280 kts | 227° |
| 2026-04-23 15:20 | 41.92910 | 1.73380 | 9424 ft | 283 kts | 218° |
| 2026-04-23 15:21 | 41.91293 | 1.71863 | 9392 ft | 284 kts | 217° |
| 2026-04-23 15:21 | 41.89646 | 1.70342 | 9359 ft | 284 kts | 217° |
| 2026-04-23 15:21 | 41.88039 | 1.68849 | 9338 ft | 283 kts | 217° |
| 2026-04-23 15:21 | 41.86422 | 1.67334 | 9312 ft | 283 kts | 218° |
| 2026-04-23 15:22 | 41.84812 | 1.65816 | 9296 ft | 282 kts | 218° |
| 2026-04-23 15:22 | 41.83212 | 1.64300 | 9260 ft | 282 kts | 219° |
| 2026-04-23 15:22 | 41.81611 | 1.62779 | 9250 ft | 282 kts | 217° |
| 2026-04-23 15:22 | 41.80008 | 1.61259 | 9245 ft | 282 kts | 218° |
| 2026-04-23 15:23 | 41.78403 | 1.59733 | 9218 ft | 283 kts | 218° |
| 2026-04-23 15:23 | 41.76794 | 1.58205 | 9203 ft | 284 kts | 219° |
| 2026-04-23 15:23 | 41.75727 | 1.57191 | 9173 ft | 284 kts | 218° |
| 2026-04-23 15:23 | 41.74113 | 1.55665 | 9155 ft | 284 kts | 216° |
| 2026-04-23 15:24 | 41.72311 | 1.54588 | 9085 ft | 289 kts | 194° |
| 2026-04-23 15:24 | 41.70335 | 1.54101 | 9034 ft | 290 kts | 193° |
| 2026-04-23 15:24 | 41.68339 | 1.53622 | 8955 ft | 292 kts | 193° |
| 2026-04-23 15:24 | 41.66328 | 1.53132 | 8758 ft | 296 kts | 193° |
| 2026-04-23 15:25 | 41.64316 | 1.52631 | 8649 ft | 291 kts | 193° |
| 2026-04-23 15:25 | 41.62344 | 1.52135 | 8528 ft | 286 kts | 192° |
| 2026-04-23 15:25 | 41.60412 | 1.51644 | 8448 ft | 281 kts | 192° |
| 2026-04-23 15:25 | 41.58497 | 1.51157 | 8371 ft | 279 kts | 192° |
| 2026-04-23 15:26 | 41.56603 | 1.50636 | 8283 ft | 277 kts | 198° |
| 2026-04-23 15:26 | 41.54978 | 1.49323 | 8198 ft | 275 kts | 228° |
| 2026-04-23 15:26 | 41.53965 | 1.47170 | 8143 ft | 278 kts | 250° |
| 2026-04-23 15:26 | 41.53361 | 1.44710 | 8076 ft | 280 kts | 253° |
| 2026-04-23 15:27 | 41.52811 | 1.42208 | 7974 ft | 281 kts | 254° |
| 2026-04-23 15:27 | 41.52269 | 1.39695 | 7898 ft | 282 kts | 254° |
| 2026-04-23 15:27 | 41.51724 | 1.37195 | 7798 ft | 280 kts | 253° |
| 2026-04-23 15:27 | 41.51179 | 1.34715 | 7719 ft | 277 kts | 253° |
| 2026-04-23 15:28 | 41.50640 | 1.32285 | 7642 ft | 275 kts | 253° |
| 2026-04-23 15:28 | 41.50095 | 1.29843 | 7565 ft | 274 kts | 253° |
| 2026-04-23 15:28 | 41.49549 | 1.27413 | 7481 ft | 273 kts | 253° |
| 2026-04-23 15:28 | 41.48998 | 1.24968 | 7411 ft | 278 kts | 253° |
| 2026-04-23 15:29 | 41.48439 | 1.22491 | 7335 ft | 280 kts | 252° |
| 2026-04-23 15:29 | 41.47874 | 1.20002 | 7238 ft | 279 kts | 252° |
| 2026-04-23 15:29 | 41.47314 | 1.17530 | 7141 ft | 278 kts | 252° |
| 2026-04-23 15:29 | 41.46753 | 1.15060 | 7072 ft | 277 kts | 252° |
| 2026-04-23 15:30 | 41.46194 | 1.12601 | 6995 ft | 277 kts | 253° |
| 2026-04-23 15:30 | 41.45633 | 1.10139 | 6922 ft | 278 kts | 253° |
| 2026-04-23 15:30 | 41.45070 | 1.07673 | 6834 ft | 279 kts | 252° |
| 2026-04-23 15:30 | 41.44503 | 1.05193 | 6743 ft | 280 kts | 252° |
| 2026-04-23 15:31 | 41.43933 | 1.02703 | 6669 ft | 282 kts | 252° |
| 2026-04-23 15:31 | 41.43361 | 1.00200 | 6586 ft | 283 kts | 252° |
| 2026-04-23 15:31 | 41.42784 | 0.97683 | 6496 ft | 284 kts | 252° |
| 2026-04-23 15:31 | 41.42207 | 0.95168 | 6419 ft | 284 kts | 252° |
| 2026-04-23 15:32 | 41.41630 | 0.92648 | 6326 ft | 283 kts | 252° |
| 2026-04-23 15:32 | 41.41053 | 0.90140 | 6250 ft | 283 kts | 251° |
| 2026-04-23 15:32 | 41.40475 | 0.87632 | 6154 ft | 284 kts | 251° |
| 2026-04-23 15:32 | 41.39902 | 0.85152 | 6073 ft | 283 kts | 250° |
| 2026-04-23 15:33 | 41.38965 | 0.82893 | 5956 ft | 279 kts | 223° |
| 2026-04-23 15:33 | 41.37393 | 0.81465 | 5941 ft | 272 kts | 202° |
| 2026-04-23 15:33 | 41.35618 | 0.80631 | 5891 ft | 270 kts | 194° |
| 2026-04-23 15:33 | 41.33809 | 0.79961 | 5830 ft | 269 kts | 193° |
| 2026-04-23 15:34 | 41.32008 | 0.79308 | 5786 ft | 268 kts | 192° |
| 2026-04-23 15:34 | 41.30244 | 0.78653 | 5719 ft | 270 kts | 195° |
| 2026-04-23 15:34 | 41.28400 | 0.77949 | 5647 ft | 269 kts | 193° |
| 2026-04-23 15:34 | 41.26634 | 0.77258 | 5558 ft | 258 kts | 194° |
| 2026-04-23 15:35 | 41.24960 | 0.76577 | 5535 ft | 247 kts | 194° |
| 2026-04-23 15:35 | 41.23340 | 0.75951 | 5488 ft | 238 kts | 192° |
| 2026-04-23 15:35 | 41.21746 | 0.75507 | 5394 ft | 229 kts | 186° |
| 2026-04-23 15:35 | 41.20196 | 0.75162 | 5309 ft | 223 kts | 185° |
| 2026-04-23 15:36 | 41.18695 | 0.74825 | 5246 ft | 214 kts | 185° |
| 2026-04-23 15:36 | 41.17264 | 0.74497 | 5179 ft | 203 kts | 186° |
| 2026-04-23 15:36 | 41.15900 | 0.74377 | 5085 ft | 189 kts | 171° |
| 2026-04-23 15:36 | 41.14609 | 0.74476 | 5013 ft | 184 kts | 173° |
| 2026-04-23 15:37 | 41.13339 | 0.74558 | 4957 ft | 184 kts | 174° |
| 2026-04-23 15:37 | 41.12059 | 0.74633 | 4910 ft | 185 kts | 172° |
| 2026-04-23 15:37 | 41.10773 | 0.74706 | 4834 ft | 184 kts | 174° |
| 2026-04-23 15:37 | 41.09531 | 0.74817 | 4748 ft | 173 kts | 163° |
| 2026-04-23 15:38 | 41.08465 | 0.75326 | 4715 ft | 156 kts | 155° |
| 2026-04-23 15:38 | 41.07475 | 0.75835 | 4645 ft | 151 kts | 155° |
| 2026-04-23 15:38 | 41.06482 | 0.76343 | 4600 ft | 156 kts | 156° |
| 2026-04-23 15:38 | 41.05453 | 0.76865 | 4589 ft | 161 kts | 153° |
| 2026-04-23 15:39 | 41.04442 | 0.77500 | 4497 ft | 162 kts | 135° |
| 2026-04-23 15:39 | 41.04061 | 0.78794 | 4427 ft | 155 kts | 81° |
| 2026-04-23 15:39 | 41.04362 | 0.80166 | 4396 ft | 157 kts | 77° |
| 2026-04-23 15:39 | 41.04680 | 0.81585 | 4349 ft | 163 kts | 76° |
| 2026-04-23 15:40 | 41.05040 | 0.83006 | 4275 ft | 161 kts | 75° |
| 2026-04-23 15:40 | 41.05411 | 0.84376 | 4237 ft | 156 kts | 73° |
| 2026-04-23 15:40 | 41.05793 | 0.85746 | 4169 ft | 161 kts | 73° |
| 2026-04-23 15:40 | 41.06190 | 0.87151 | 4002 ft | 163 kts | 73° |
| 2026-04-23 15:41 | 41.06577 | 0.88509 | 4002 ft | 156 kts | 72° |
| 2026-04-23 15:41 | 41.06959 | 0.89858 | 3996 ft | 156 kts | 73° |
| 2026-04-23 15:41 | 41.07350 | 0.91199 | 3980 ft | 156 kts | 74° |
| 2026-04-23 15:41 | 41.07740 | 0.92565 | 3877 ft | 164 kts | 73° |
| 2026-04-23 15:42 | 41.08151 | 0.93978 | 3697 ft | 164 kts | 72° |
| 2026-04-23 15:42 | 41.08558 | 0.95384 | 3474 ft | 162 kts | 73° |
| 2026-04-23 15:42 | 41.08957 | 0.96767 | 3264 ft | 161 kts | 73° |
| 2026-04-23 15:42 | 41.09354 | 0.98142 | 3048 ft | 158 kts | 73° |
| 2026-04-23 15:43 | 41.09741 | 0.99478 | 2848 ft | 154 kts | 73° |
| 2026-04-23 15:43 | 41.10123 | 1.00798 | 2638 ft | 151 kts | 73° |
| 2026-04-23 15:43 | 41.10495 | 1.02092 | 2437 ft | 147 kts | 73° |
| 2026-04-23 15:43 | 41.10850 | 1.03319 | 2262 ft | 140 kts | 73° |
| 2026-04-23 15:44 | 41.11193 | 1.04505 | 2076 ft | 136 kts | 71° |
| 2026-04-23 15:44 | 41.11537 | 1.05691 | 1910 ft | 138 kts | 71° |
| 2026-04-23 15:44 | 41.11885 | 1.06891 | 1693 ft | 140 kts | 71° |
| 2026-04-23 15:44 | 41.12226 | 1.08068 | 1526 ft | 133 kts | 72° |
| 2026-04-23 15:45 | 41.12551 | 1.09189 | 1348 ft | 127 kts | 73° |
| 2026-04-23 15:45 | 41.12880 | 1.10299 | 1183 ft | 135 kts | 70° |
| 2026-04-23 15:45 | 41.13225 | 1.11513 | 1022 ft | 141 kts | 73° |
| 2026-04-23 15:45 | 41.13578 | 1.12729 | 815 ft | 145 kts | 70° |
| 2026-04-23 15:46 | 41.13941 | 1.13920 | 638 ft | 138 kts | 70° |
| 2026-04-23 15:46 | 41.14273 | 1.15104 | 428 ft | 130 kts | 71° |
| 2026-04-23 15:46 | 41.14598 | 1.16210 | 239 ft | 130 kts | 69° |
| 2026-04-23 15:46 | 41.14862 | 1.17114 | 239 ft | 75 kts | 68° |
| 2026-04-23 15:47 | 41.14976 | 1.17502 | 241 ft | 16 kts | 69° |
| 2026-04-23 15:47 | 41.15023 | 1.17598 | 242 ft | 4 kts | 12° |
| 2026-04-23 15:47 | 41.15057 | 1.17585 | 242 ft | 6 kts | 338° |
| 2026-04-23 15:47 | 41.15098 | 1.17563 | 241 ft | 8 kts | 338° |
| 2026-04-23 15:48 | 41.15144 | 1.17509 | 241 ft | 10 kts | 277° |
| 2026-04-23 15:48 | 41.15120 | 1.17411 | 241 ft | 12 kts | 248° |
| 2026-04-23 15:48 | 41.15085 | 1.17294 | 241 ft | 15 kts | 248° |
| 2026-04-23 15:48 | 41.15044 | 1.17155 | 241 ft | 17 kts | 249° |
| 2026-04-23 15:49 | 41.14998 | 1.16997 | 240 ft | 20 kts | 248° |
| 2026-04-23 15:49 | 41.14945 | 1.16820 | 240 ft | 22 kts | 249° |
| 2026-04-23 15:49 | 41.14889 | 1.16625 | 240 ft | 23 kts | 250° |
| 2026-04-23 15:49 | 41.14831 | 1.16428 | 240 ft | 23 kts | 249° |
| 2026-04-23 15:50 | 41.14776 | 1.16236 | 239 ft | 22 kts | 249° |
| 2026-04-23 15:50 | 41.14721 | 1.16049 | 239 ft | 21 kts | 249° |
| 2026-04-23 15:50 | 41.14669 | 1.15869 | 238 ft | 21 kts | 249° |
| 2026-04-23 15:50 | 41.14617 | 1.15693 | 238 ft | 20 kts | 249° |
| 2026-04-23 15:51 | 41.14581 | 1.15569 | 238 ft | 10 kts | 251° |
| 2026-04-23 15:51 | 41.14618 | 1.15508 | 238 ft | 10 kts | 339° |
| 2026-04-23 15:51 | 41.14657 | 1.15489 | 238 ft | 0 kts | 339° |